Kezdőlap
METAR-TAF:

METAR-TAF

Repülőterek :

Le Mars Municipal Airport

Le Mars, Iowa, Amerikai Egyesült Államok

földrajzi szélesség: 42-46-41N, földrajzi hosszúság: 096-11-37W, magasság: 365 m

Jelenlegi meteorológiai megfigyelések

A jelentés 18 perccel ezelõtt készült, 15:35 UTC
Keleti szél 9 kt, kelet-északkeleti és délkeleti között változik
Hőmérséklet 12°C
Páratartalom 30%
Légköri nyomás 1029 hPa
Látótávolság: 16.1 km
Derült ég

METAR: KLRJ 111535Z AUTO 08009KT 060V140 10SM CLR 12/M05 A3038 RMK AO2

Idő: 10:53 (15:53 UTC)


TAF: hiányzik

Meteorológiai megfigyelések és előrejelzések több, mint 4000 repülőtéren (METAR és TAF jelentéseket).

A térképen piros és sárga pontok jelzik az elérhető meteorológiai állomásokat.

Mozgassa az egeret a pont fölött, hogy megjelenjen az állomás neve.

Azután kattintson az időjárási megfigyelések és előrejelzések megtekintéséhez.

A térkép megváltoztatása: kattintson a fekete keresztel jelölt zöld gombra ráközelítéshez, a vonallal jelölt zöld gombra távolításhoz, vagy a zöld nyilakra a szomszédos térképek eléréséhez.


METAR-TAF: